sensor_id;sensor_type;location;lat;lon;timestamp;pressure;altitude;pressure_sealevel;temperature;humidity
37892;BME280;45797;47.466;9.486;2022-07-12T00:00:05;96369.84;;;19.84;50.86
37892;BME280;45797;47.466;9.486;2022-07-12T00:05:15;96370.50;;;19.86;50.45
37892;BME280;45797;47.466;9.486;2022-07-12T00:10:15;96368.78;;;19.77;50.96
37892;BME280;45797;47.466;9.486;2022-07-12T00:15:16;96371.06;;;19.72;51.33
37892;BME280;45797;47.466;9.486;2022-07-12T00:20:19;96375.00;;;19.68;51.51
37892;BME280;45797;47.466;9.486;2022-07-12T00:25:19;96369.59;;;19.60;51.56
37892;BME280;45797;47.466;9.486;2022-07-12T00:30:20;96378.03;;;19.55;51.73
37892;BME280;45797;47.466;9.486;2022-07-12T00:35:20;96373.84;;;19.53;51.71
37892;BME280;45797;47.466;9.486;2022-07-12T00:40:24;96376.13;;;19.48;52.19
37892;BME280;45797;47.466;9.486;2022-07-12T00:45:24;96382.31;;;19.38;52.23
37892;BME280;45797;47.466;9.486;2022-07-12T00:50:33;96379.00;;;19.36;52.08
37892;BME280;45797;47.466;9.486;2022-07-12T00:55:46;96379.31;;;19.33;52.25
37892;BME280;45797;47.466;9.486;2022-07-12T01:00:46;96380.63;;;19.20;52.76
37892;BME280;45797;47.466;9.486;2022-07-12T01:05:49;96381.94;;;19.16;52.81
37892;BME280;45797;47.466;9.486;2022-07-12T01:10:52;96384.75;;;19.14;52.88
37892;BME280;45797;47.466;9.486;2022-07-12T01:15:52;96375.53;;;19.08;53.49
37892;BME280;45797;47.466;9.486;2022-07-12T01:20:53;96381.28;;;19.04;53.43
37892;BME280;45797;47.466;9.486;2022-07-12T01:25:53;96380.06;;;18.98;53.32
37892;BME280;45797;47.466;9.486;2022-07-12T01:30:54;96384.81;;;18.95;53.78
37892;BME280;45797;47.466;9.486;2022-07-12T01:35:54;96379.81;;;18.92;53.79
37892;BME280;45797;47.466;9.486;2022-07-12T01:40:54;96377.31;;;18.90;53.66
37892;BME280;45797;47.466;9.486;2022-07-12T01:45:54;96378.13;;;18.91;54.02
37892;BME280;45797;47.466;9.486;2022-07-12T01:50:59;96368.66;;;18.88;53.73
37892;BME280;45797;47.466;9.486;2022-07-12T01:56:07;96374.94;;;18.87;53.81
37892;BME280;45797;47.466;9.486;2022-07-12T02:01:14;96374.69;;;18.80;54.00
37892;BME280;45797;47.466;9.486;2022-07-12T02:06:15;96365.47;;;18.75;54.41
37892;BME280;45797;47.466;9.486;2022-07-12T02:11:21;96365.38;;;18.76;54.17
37892;BME280;45797;47.466;9.486;2022-07-12T02:16:21;96372.91;;;18.71;54.48
37892;BME280;45797;47.466;9.486;2022-07-12T02:21:22;96379.50;;;18.67;54.64
37892;BME280;45797;47.466;9.486;2022-07-12T02:26:23;96381.72;;;18.62;54.65
37892;BME280;45797;47.466;9.486;2022-07-12T02:31:25;96376.72;;;18.59;55.03
37892;BME280;45797;47.466;9.486;2022-07-12T02:36:26;96377.69;;;18.58;55.05
37892;BME280;45797;47.466;9.486;2022-07-12T02:41:26;96384.69;;;18.59;55.20
37892;BME280;45797;47.466;9.486;2022-07-12T02:46:30;96383.53;;;18.62;54.86
37892;BME280;45797;47.466;9.486;2022-07-12T02:51:31;96377.81;;;18.56;55.26
37892;BME280;45797;47.466;9.486;2022-07-12T02:56:33;96373.50;;;18.55;55.13
37892;BME280;45797;47.466;9.486;2022-07-12T03:01:40;96379.38;;;18.59;55.12
37892;BME280;45797;47.466;9.486;2022-07-12T03:06:42;96385.41;;;18.51;55.43
37892;BME280;45797;47.466;9.486;2022-07-12T03:11:47;96384.41;;;18.52;55.63
37892;BME280;45797;47.466;9.486;2022-07-12T03:16:55;96386.91;;;18.54;55.51
37892;BME280;45797;47.466;9.486;2022-07-12T03:21:55;96387.63;;;18.46;55.65
37892;BME280;45797;47.466;9.486;2022-07-12T03:26:55;96386.09;;;18.44;55.84
37892;BME280;45797;47.466;9.486;2022-07-12T03:31:57;96380.13;;;18.42;56.17
37892;BME280;45797;47.466;9.486;2022-07-12T03:37:04;96381.63;;;18.44;55.92
37892;BME280;45797;47.466;9.486;2022-07-12T03:42:05;96390.03;;;18.40;56.24
37892;BME280;45797;47.466;9.486;2022-07-12T03:47:05;96392.69;;;18.40;56.61
37892;BME280;45797;47.466;9.486;2022-07-12T03:52:06;96403.16;;;18.41;56.48
37892;BME280;45797;47.466;9.486;2022-07-12T03:57:07;96406.66;;;18.42;56.73
37892;BME280;45797;47.466;9.486;2022-07-12T04:02:14;96402.72;;;18.46;56.37
37892;BME280;45797;47.466;9.486;2022-07-12T04:07:15;96410.09;;;18.52;56.54
37892;BME280;45797;47.466;9.486;2022-07-12T04:12:21;96397.66;;;18.62;56.04
37892;BME280;45797;47.466;9.486;2022-07-12T04:17:23;96401.69;;;18.66;56.23
37892;BME280;45797;47.466;9.486;2022-07-12T04:22:24;96399.16;;;18.74;56.12
37892;BME280;45797;47.466;9.486;2022-07-12T04:27:23;96397.03;;;18.88;55.92
37892;BME280;45797;47.466;9.486;2022-07-12T04:32:53;96411.28;;;19.14;55.19
37892;BME280;45797;47.466;9.486;2022-07-12T04:37:53;96417.28;;;19.16;55.89
37892;BME280;45797;47.466;9.486;2022-07-12T04:42:55;96419.59;;;19.29;55.57
37892;BME280;45797;47.466;9.486;2022-07-12T04:47:56;96422.88;;;19.40;55.46
37892;BME280;45797;47.466;9.486;2022-07-12T04:52:57;96431.25;;;19.46;55.52
37892;BME280;45797;47.466;9.486;2022-07-12T04:58:05;96439.88;;;19.57;55.40
37892;BME280;45797;47.466;9.486;2022-07-12T05:03:12;96440.38;;;19.61;55.14
37892;BME280;45797;47.466;9.486;2022-07-12T05:08:13;96453.56;;;19.62;56.00
37892;BME280;45797;47.466;9.486;2022-07-12T05:13:20;96453.34;;;19.74;55.49
37892;BME280;45797;47.466;9.486;2022-07-12T05:18:21;96442.63;;;19.83;55.33
37892;BME280;45797;47.466;9.486;2022-07-12T05:23:21;96443.91;;;19.97;55.28
37892;BME280;45797;47.466;9.486;2022-07-12T05:28:21;96454.03;;;20.11;55.03
37892;BME280;45797;47.466;9.486;2022-07-12T05:33:21;96450.13;;;20.23;55.17
37892;BME280;45797;47.466;9.486;2022-07-12T05:38:22;96453.56;;;20.16;55.74
37892;BME280;45797;47.466;9.486;2022-07-12T05:43:21;96449.44;;;20.21;55.71
37892;BME280;45797;47.466;9.486;2022-07-12T05:48:21;96465.34;;;20.31;55.73
37892;BME280;45797;47.466;9.486;2022-07-12T05:53:21;96466.06;;;20.41;55.11
37892;BME280;45797;47.466;9.486;2022-07-12T05:58:24;96471.13;;;20.44;55.24
37892;BME280;45797;47.466;9.486;2022-07-12T06:03:30;96475.16;;;20.48;54.97
37892;BME280;45797;47.466;9.486;2022-07-12T06:08:39;96461.94;;;20.65;54.61
37892;BME280;45797;47.466;9.486;2022-07-12T06:13:46;96458.38;;;20.82;54.76
37892;BME280;45797;47.466;9.486;2022-07-12T06:18:48;96464.16;;;20.95;54.73
37892;BME280;45797;47.466;9.486;2022-07-12T06:23:47;96465.53;;;21.07;54.10
37892;BME280;45797;47.466;9.486;2022-07-12T06:28:47;96465.25;;;21.19;54.06
37892;BME280;45797;47.466;9.486;2022-07-12T06:33:47;96458.81;;;21.29;53.91
37892;BME280;45797;47.466;9.486;2022-07-12T06:38:47;96464.19;;;21.37;53.77
37892;BME280;45797;47.466;9.486;2022-07-12T06:43:48;96474.34;;;21.34;54.28
37892;BME280;45797;47.466;9.486;2022-07-12T06:48:54;96479.72;;;21.42;54.20
37892;BME280;45797;47.466;9.486;2022-07-12T06:53:54;96485.06;;;21.50;53.61
37892;BME280;45797;47.466;9.486;2022-07-12T06:59:03;96487.59;;;21.60;53.73
37892;BME280;45797;47.466;9.486;2022-07-12T07:04:04;96484.22;;;21.50;53.96
37892;BME280;45797;47.466;9.486;2022-07-12T07:09:16;96489.81;;;21.73;53.88
37892;BME280;45797;47.466;9.486;2022-07-12T07:14:18;96499.50;;;21.74;53.80
37892;BME280;45797;47.466;9.486;2022-07-12T07:19:18;96497.88;;;21.89;53.88
37892;BME280;45797;47.466;9.486;2022-07-12T07:24:20;96485.72;;;22.03;53.37
37892;BME280;45797;47.466;9.486;2022-07-12T07:29:21;96490.09;;;22.12;53.51
37892;BME280;45797;47.466;9.486;2022-07-12T07:34:44;96493.44;;;22.22;53.26
37892;BME280;45797;47.466;9.486;2022-07-12T07:39:46;96487.13;;;22.39;53.20
37892;BME280;45797;47.466;9.486;2022-07-12T07:44:55;96490.94;;;22.45;53.32
37892;BME280;45797;47.466;9.486;2022-07-12T07:49:56;96495.63;;;22.35;53.67
37892;BME280;45797;47.466;9.486;2022-07-12T07:54:57;96507.31;;;22.34;53.36
37892;BME280;45797;47.466;9.486;2022-07-12T07:59:57;96501.31;;;22.40;53.64
37892;BME280;45797;47.466;9.486;2022-07-12T08:05:08;96510.16;;;22.57;52.82
37892;BME280;45797;47.466;9.486;2022-07-12T08:10:19;96503.31;;;22.46;53.38
37892;BME280;45797;47.466;9.486;2022-07-12T08:15:22;96512.00;;;22.48;53.47
37892;BME280;45797;47.466;9.486;2022-07-12T08:20:25;96527.03;;;22.57;53.67
37892;BME280;45797;47.466;9.486;2022-07-12T08:25:32;96529.34;;;22.76;53.04
37892;BME280;45797;47.466;9.486;2022-07-12T08:30:32;96538.38;;;22.84;53.14
37892;BME280;45797;47.466;9.486;2022-07-12T08:35:38;96532.03;;;22.93;53.12
37892;BME280;45797;47.466;9.486;2022-07-12T08:40:39;96523.53;;;22.97;53.00
37892;BME280;45797;47.466;9.486;2022-07-12T08:45:40;96524.16;;;23.24;52.38
37892;BME280;45797;47.466;9.486;2022-07-12T08:50:41;96521.25;;;23.42;52.32
37892;BME280;45797;47.466;9.486;2022-07-12T08:55:47;96517.84;;;23.56;51.95
37892;BME280;45797;47.466;9.486;2022-07-12T09:00:49;96526.34;;;23.68;51.55
37892;BME280;45797;47.466;9.486;2022-07-12T09:05:53;96530.16;;;23.81;51.49
37892;BME280;45797;47.466;9.486;2022-07-12T09:10:58;96526.03;;;24.02;50.91
37892;BME280;45797;47.466;9.486;2022-07-12T09:16:13;96531.75;;;24.21;50.28
37892;BME280;45797;47.466;9.486;2022-07-12T09:21:27;96526.16;;;24.39;49.62
37892;BME280;45797;47.466;9.486;2022-07-12T09:26:33;96528.28;;;24.67;48.96
37892;BME280;45797;47.466;9.486;2022-07-12T09:31:51;96529.66;;;25.00;48.49
37892;BME280;45797;47.466;9.486;2022-07-12T09:37:11;96526.22;;;25.15;47.83
37892;BME280;45797;47.466;9.486;2022-07-12T09:42:21;96529.00;;;25.36;47.65
37892;BME280;45797;47.466;9.486;2022-07-12T09:47:29;96531.59;;;25.59;47.04
37892;BME280;45797;47.466;9.486;2022-07-12T09:52:32;96534.84;;;25.84;46.33
37892;BME280;45797;47.466;9.486;2022-07-12T09:57:40;96535.16;;;26.10;46.47
37892;BME280;45797;47.466;9.486;2022-07-12T10:02:41;96538.13;;;26.15;45.72
37892;BME280;45797;47.466;9.486;2022-07-12T10:07:44;96533.09;;;26.27;45.57
37892;BME280;45797;47.466;9.486;2022-07-12T10:12:48;96539.09;;;26.29;45.40
37892;BME280;45797;47.466;9.486;2022-07-12T10:17:53;96546.00;;;26.17;45.42
37892;BME280;45797;47.466;9.486;2022-07-12T10:23:34;96542.63;;;26.30;45.18
37892;BME280;45797;47.466;9.486;2022-07-12T10:34:14;96545.34;;;26.51;44.67
37892;BME280;45797;47.466;9.486;2022-07-12T10:39:31;96539.81;;;26.74;44.08
37892;BME280;45797;47.466;9.486;2022-07-12T10:44:36;96540.09;;;26.86;43.56
37892;BME280;45797;47.466;9.486;2022-07-12T10:49:46;96544.06;;;27.11;43.11
37892;BME280;45797;47.466;9.486;2022-07-12T11:00:03;96539.41;;;27.26;42.60
37892;BME280;45797;47.466;9.486;2022-07-12T11:05:04;96537.06;;;27.45;42.11
37892;BME280;45797;47.466;9.486;2022-07-12T11:10:12;96538.69;;;27.74;41.56
37892;BME280;45797;47.466;9.486;2022-07-12T11:15:20;96533.16;;;27.82;41.41
37892;BME280;45797;47.466;9.486;2022-07-12T11:20:27;96536.09;;;27.94;41.19
37892;BME280;45797;47.466;9.486;2022-07-12T11:25:34;96531.00;;;28.18;40.64
37892;BME280;45797;47.466;9.486;2022-07-12T11:30:34;96537.97;;;28.48;40.12
37892;BME280;45797;47.466;9.486;2022-07-12T11:35:40;96542.56;;;28.67;39.63
37892;BME280;45797;47.466;9.486;2022-07-12T11:40:42;96532.59;;;28.54;39.57
37892;BME280;45797;47.466;9.486;2022-07-12T11:45:53;96531.56;;;28.68;39.03
37892;BME280;45797;47.466;9.486;2022-07-12T11:50:55;96523.25;;;28.70;38.92
37892;BME280;45797;47.466;9.486;2022-07-12T11:55:57;96505.22;;;28.77;38.58
37892;BME280;45797;47.466;9.486;2022-07-12T12:00:57;96519.75;;;28.76;38.74
37892;BME280;45797;47.466;9.486;2022-07-12T12:06:06;96513.97;;;29.06;38.34
37892;BME280;45797;47.466;9.486;2022-07-12T12:11:27;96510.22;;;29.07;37.94
37892;BME280;45797;47.466;9.486;2022-07-12T12:16:33;96508.97;;;29.16;37.51
37892;BME280;45797;47.466;9.486;2022-07-12T12:21:44;96509.56;;;29.44;37.73
37892;BME280;45797;47.466;9.486;2022-07-12T12:26:55;96502.16;;;29.91;36.61
37892;BME280;45797;47.466;9.486;2022-07-12T12:32:04;96508.00;;;29.88;36.48
37892;BME280;45797;47.466;9.486;2022-07-12T12:37:06;96509.69;;;29.82;36.46
37892;BME280;45797;47.466;9.486;2022-07-12T12:42:11;96497.19;;;29.88;36.15
37892;BME280;45797;47.466;9.486;2022-07-12T12:47:12;96501.31;;;30.04;35.60
37892;BME280;45797;47.466;9.486;2022-07-12T12:52:30;96507.50;;;30.18;35.23
37892;BME280;45797;47.466;9.486;2022-07-12T12:57:31;96503.34;;;30.53;35.12
37892;BME280;45797;47.466;9.486;2022-07-12T13:02:48;96502.50;;;30.84;34.97
37892;BME280;45797;47.466;9.486;2022-07-12T13:07:58;96506.09;;;31.03;34.44
37892;BME280;45797;47.466;9.486;2022-07-12T13:13:03;96508.69;;;31.16;34.66
37892;BME280;45797;47.466;9.486;2022-07-12T13:18:04;96498.09;;;31.40;34.27
37892;BME280;45797;47.466;9.486;2022-07-12T13:23:14;96499.22;;;31.69;33.80
37892;BME280;45797;47.466;9.486;2022-07-12T13:28:18;96497.94;;;31.71;33.86
37892;BME280;45797;47.466;9.486;2022-07-12T13:33:23;96506.13;;;31.65;34.00
37892;BME280;45797;47.466;9.486;2022-07-12T13:38:24;96493.31;;;31.78;34.17
37892;BME280;45797;47.466;9.486;2022-07-12T13:43:26;96508.66;;;32.03;33.30
37892;BME280;45797;47.466;9.486;2022-07-12T13:48:26;96502.22;;;32.34;33.41
37892;BME280;45797;47.466;9.486;2022-07-12T13:53:51;96513.97;;;32.58;33.08
37892;BME280;45797;47.466;9.486;2022-07-12T13:58:53;96504.47;;;32.37;33.07
37892;BME280;45797;47.466;9.486;2022-07-12T14:03:52;96503.31;;;32.45;32.77
37892;BME280;45797;47.466;9.486;2022-07-12T14:08:52;96506.28;;;32.43;32.77
37892;BME280;45797;47.466;9.486;2022-07-12T14:13:59;96504.88;;;32.52;32.78
37892;BME280;45797;47.466;9.486;2022-07-12T14:19:03;96497.50;;;32.71;32.49
37892;BME280;45797;47.466;9.486;2022-07-12T14:24:04;96489.63;;;32.81;31.82
37892;BME280;45797;47.466;9.486;2022-07-12T14:29:04;96490.06;;;32.78;31.96
37892;BME280;45797;47.466;9.486;2022-07-12T14:34:04;96486.84;;;33.00;31.62
37892;BME280;45797;47.466;9.486;2022-07-12T14:39:04;96489.09;;;33.26;31.28
37892;BME280;45797;47.466;9.486;2022-07-12T14:44:04;96474.22;;;33.29;31.73
37892;BME280;45797;47.466;9.486;2022-07-12T14:49:17;96475.72;;;33.60;31.55
37892;BME280;45797;47.466;9.486;2022-07-12T14:54:17;96472.66;;;33.44;31.14
37892;BME280;45797;47.466;9.486;2022-07-12T14:59:17;96464.25;;;33.34;30.99
37892;BME280;45797;47.466;9.486;2022-07-12T15:04:18;96465.59;;;33.43;30.95
37892;BME280;45797;47.466;9.486;2022-07-12T15:09:20;96464.75;;;33.31;31.22
37892;BME280;45797;47.466;9.486;2022-07-12T15:14:21;96462.03;;;33.19;31.18
37892;BME280;45797;47.466;9.486;2022-07-12T15:19:24;96455.19;;;33.40;31.01
37892;BME280;45797;47.466;9.486;2022-07-12T15:24:29;96468.25;;;34.19;29.96
37892;BME280;45797;47.466;9.486;2022-07-12T15:29:29;96463.88;;;36.02;27.76
37892;BME280;45797;47.466;9.486;2022-07-12T15:34:30;96476.72;;;38.77;24.52
37892;BME280;45797;47.466;9.486;2022-07-12T15:39:36;96475.31;;;40.86;22.67
37892;BME280;45797;47.466;9.486;2022-07-12T15:44:38;96470.75;;;42.91;20.45
37892;BME280;45797;47.466;9.486;2022-07-12T15:49:37;96478.72;;;44.90;19.23
37892;BME280;45797;47.466;9.486;2022-07-12T15:54:39;96490.59;;;45.80;18.15
37892;BME280;45797;47.466;9.486;2022-07-12T15:59:38;96481.72;;;46.75;17.81
37892;BME280;45797;47.466;9.486;2022-07-12T16:04:38;96489.16;;;47.52;16.88
37892;BME280;45797;47.466;9.486;2022-07-12T16:09:40;96489.91;;;47.88;16.90
37892;BME280;45797;47.466;9.486;2022-07-12T16:14:39;96497.06;;;48.56;16.17
37892;BME280;45797;47.466;9.486;2022-07-12T16:19:39;96485.84;;;49.28;16.29
37892;BME280;45797;47.466;9.486;2022-07-12T16:24:40;96498.91;;;50.79;15.18
37892;BME280;45797;47.466;9.486;2022-07-12T16:29:41;96493.78;;;50.69;15.59
37892;BME280;45797;47.466;9.486;2022-07-12T16:34:41;96497.41;;;50.81;15.04
37892;BME280;45797;47.466;9.486;2022-07-12T16:39:41;96500.44;;;52.04;13.71
37892;BME280;45797;47.466;9.486;2022-07-12T16:44:43;96501.94;;;52.33;14.07
37892;BME280;45797;47.466;9.486;2022-07-12T16:49:44;96513.59;;;53.05;13.63
37892;BME280;45797;47.466;9.486;2022-07-12T16:54:45;96508.47;;;53.27;13.77
37892;BME280;45797;47.466;9.486;2022-07-12T16:59:45;96514.88;;;53.47;13.42
37892;BME280;45797;47.466;9.486;2022-07-12T17:04:47;96520.31;;;52.15;14.60
37892;BME280;45797;47.466;9.486;2022-07-12T17:09:48;96507.78;;;49.95;16.14
37892;BME280;45797;47.466;9.486;2022-07-12T17:14:51;96512.75;;;50.02;15.53
37892;BME280;45797;47.466;9.486;2022-07-12T17:19:52;96510.97;;;50.43;14.45
37892;BME280;45797;47.466;9.486;2022-07-12T17:24:52;96503.38;;;49.49;15.10
37892;BME280;45797;47.466;9.486;2022-07-12T17:30:01;96515.09;;;49.88;15.34
37892;BME280;45797;47.466;9.486;2022-07-12T17:35:04;96521.59;;;50.90;13.87
37892;BME280;45797;47.466;9.486;2022-07-12T17:40:08;96521.91;;;52.47;12.95
37892;BME280;45797;47.466;9.486;2022-07-12T17:45:09;96521.38;;;52.77;12.90
37892;BME280;45797;47.466;9.486;2022-07-12T17:50:11;96523.34;;;51.78;13.38
37892;BME280;45797;47.466;9.486;2022-07-12T17:55:12;96520.78;;;51.73;13.79
37892;BME280;45797;47.466;9.486;2022-07-12T18:00:13;96524.66;;;50.72;14.44
37892;BME280;45797;47.466;9.486;2022-07-12T18:05:14;96508.38;;;47.92;16.26
37892;BME280;45797;47.466;9.486;2022-07-12T18:10:15;96507.63;;;48.13;15.72
37892;BME280;45797;47.466;9.486;2022-07-12T18:15:21;96515.22;;;49.25;15.38
37892;BME280;45797;47.466;9.486;2022-07-12T18:20:21;96512.44;;;49.25;14.96
37892;BME280;45797;47.466;9.486;2022-07-12T18:25:22;96510.13;;;47.41;16.49
37892;BME280;45797;47.466;9.486;2022-07-12T18:30:28;96504.00;;;45.96;17.72
37892;BME280;45797;47.466;9.486;2022-07-12T18:35:31;96510.91;;;45.45;17.42
37892;BME280;45797;47.466;9.486;2022-07-12T18:40:32;96499.34;;;43.33;19.69
37892;BME280;45797;47.466;9.486;2022-07-12T18:45:33;96494.66;;;40.65;21.09
37892;BME280;45797;47.466;9.486;2022-07-12T18:50:34;96493.06;;;38.47;23.21
37892;BME280;45797;47.466;9.486;2022-07-12T18:55:37;96490.00;;;36.69;25.04
37892;BME280;45797;47.466;9.486;2022-07-12T19:00:38;96485.84;;;35.02;25.96
37892;BME280;45797;47.466;9.486;2022-07-12T19:05:45;96482.25;;;33.59;27.52
37892;BME280;45797;47.466;9.486;2022-07-12T19:10:45;96485.47;;;32.37;28.91
37892;BME280;45797;47.466;9.486;2022-07-12T19:15:53;96479.19;;;31.33;29.43
37892;BME280;45797;47.466;9.486;2022-07-12T19:20:53;96489.50;;;30.36;30.41
37892;BME280;45797;47.466;9.486;2022-07-12T19:25:53;96485.66;;;29.54;31.50
37892;BME280;45797;47.466;9.486;2022-07-12T19:30:54;96488.00;;;28.85;32.36
37892;BME280;45797;47.466;9.486;2022-07-12T19:36:03;96497.66;;;28.26;32.68
37892;BME280;45797;47.466;9.486;2022-07-12T19:41:04;96496.22;;;27.69;33.66
37892;BME280;45797;47.466;9.486;2022-07-12T19:46:04;96498.41;;;27.24;34.28
37892;BME280;45797;47.466;9.486;2022-07-12T19:51:07;96498.09;;;26.85;34.68
37892;BME280;45797;47.466;9.486;2022-07-12T19:56:09;96500.47;;;26.52;35.25
37892;BME280;45797;47.466;9.486;2022-07-12T20:01:09;96503.53;;;26.27;35.50
37892;BME280;45797;47.466;9.486;2022-07-12T20:06:19;96499.13;;;26.05;35.81
37892;BME280;45797;47.466;9.486;2022-07-12T20:11:25;96501.97;;;25.82;35.81
37892;BME280;45797;47.466;9.486;2022-07-12T20:16:29;96504.94;;;25.57;36.62
37892;BME280;45797;47.466;9.486;2022-07-12T20:21:29;96502.16;;;25.36;36.68
37892;BME280;45797;47.466;9.486;2022-07-12T20:26:30;96511.78;;;25.16;37.23
37892;BME280;45797;47.466;9.486;2022-07-12T20:31:30;96515.16;;;24.95;37.79
37892;BME280;45797;47.466;9.486;2022-07-12T20:36:30;96514.47;;;24.78;37.58
37892;BME280;45797;47.466;9.486;2022-07-12T20:41:32;96519.94;;;24.62;37.87
37892;BME280;45797;47.466;9.486;2022-07-12T20:46:32;96529.78;;;24.46;38.46
37892;BME280;45797;47.466;9.486;2022-07-12T20:57:07;96531.28;;;24.18;39.22
37892;BME280;45797;47.466;9.486;2022-07-12T21:02:07;96527.19;;;24.07;39.10
37892;BME280;45797;47.466;9.486;2022-07-12T21:07:17;96527.03;;;24.01;39.28
37892;BME280;45797;47.466;9.486;2022-07-12T21:12:19;96533.66;;;23.82;39.89
37892;BME280;45797;47.466;9.486;2022-07-12T21:17:21;96532.22;;;23.71;40.11
37892;BME280;45797;47.466;9.486;2022-07-12T21:22:23;96536.75;;;23.62;40.27
37892;BME280;45797;47.466;9.486;2022-07-12T21:27:30;96524.84;;;23.57;40.30
37892;BME280;45797;47.466;9.486;2022-07-12T21:32:34;96526.06;;;23.46;40.54
37892;BME280;45797;47.466;9.486;2022-07-12T21:37:36;96524.44;;;23.37;40.31
37892;BME280;45797;47.466;9.486;2022-07-12T21:42:42;96524.97;;;23.32;40.87
37892;BME280;45797;47.466;9.486;2022-07-12T21:47:48;96524.97;;;23.24;40.89
37892;BME280;45797;47.466;9.486;2022-07-12T21:52:55;96511.81;;;23.15;41.18
37892;BME280;45797;47.466;9.486;2022-07-12T21:58:04;96516.31;;;23.06;41.17
37892;BME280;45797;47.466;9.486;2022-07-12T22:03:10;96524.69;;;22.95;41.59
37892;BME280;45797;47.466;9.486;2022-07-12T22:08:11;96534.00;;;22.83;41.94
37892;BME280;45797;47.466;9.486;2022-07-12T22:13:13;96528.69;;;22.74;42.20
37892;BME280;45797;47.466;9.486;2022-07-12T22:18:13;96528.53;;;22.68;42.20
37892;BME280;45797;47.466;9.486;2022-07-12T22:23:14;96537.19;;;22.62;42.81
37892;BME280;45797;47.466;9.486;2022-07-12T22:28:14;96538.03;;;22.54;42.92
37892;BME280;45797;47.466;9.486;2022-07-12T22:33:25;96534.69;;;22.52;42.81
37892;BME280;45797;47.466;9.486;2022-07-12T22:38:25;96536.19;;;22.38;43.22
37892;BME280;45797;47.466;9.486;2022-07-12T22:43:33;96534.66;;;22.36;43.23
37892;BME280;45797;47.466;9.486;2022-07-12T22:48:35;96537.66;;;22.24;43.44
37892;BME280;45797;47.466;9.486;2022-07-12T22:53:36;96534.97;;;22.16;43.84
37892;BME280;45797;47.466;9.486;2022-07-12T22:58:36;96529.66;;;22.08;44.04
37892;BME280;45797;47.466;9.486;2022-07-12T23:03:36;96530.44;;;22.01;44.15
37892;BME280;45797;47.466;9.486;2022-07-12T23:08:37;96528.22;;;21.96;44.65
37892;BME280;45797;47.466;9.486;2022-07-12T23:13:39;96525.22;;;21.91;44.60
37892;BME280;45797;47.466;9.486;2022-07-12T23:18:39;96524.88;;;21.86;44.59
37892;BME280;45797;47.466;9.486;2022-07-12T23:23:39;96529.88;;;21.81;44.75
37892;BME280;45797;47.466;9.486;2022-07-12T23:28:44;96539.19;;;21.77;44.95
37892;BME280;45797;47.466;9.486;2022-07-12T23:33:44;96538.13;;;21.70;45.27
37892;BME280;45797;47.466;9.486;2022-07-12T23:38:43;96537.81;;;21.64;45.39
37892;BME280;45797;47.466;9.486;2022-07-12T23:43:50;96532.63;;;21.63;45.20
37892;BME280;45797;47.466;9.486;2022-07-12T23:48:55;96535.25;;;21.55;45.62
37892;BME280;45797;47.466;9.486;2022-07-12T23:53:56;96534.38;;;21.46;45.69
37892;BME280;45797;47.466;9.486;2022-07-12T23:58:58;96532.06;;;21.43;45.85
